Aérodrome :
LOGIN :

S'inscrire | Disclaimer

   EN    FR    IT 

 










Légende :    VFR   VFR Marginal   IFR   IFR Intensif   IFR Très Intensif
Visi : 
Plafond : 
>= 8 km
>= 3000ft
5 à 8 km
1000 à 3000 ft
1500m à 5 km
500 à 1000 ft
800 à 1500m
200 à 500 ft
< 800m
< 200 ft
Symboles :   Orages  Brouillard  Fortes neiges  Fortes précipitations  Vent > 20 kt
SIGMETs :   Divers  Orages  Givrage  Turbulence  Onde Orograph.  Cendres Volcan.







- Altitude de l'aérodrome : 659 ft
- Code IATA : LGG


EBLG - Liège

DERNIER METAR :
  • 161850Z 36004KT CAVOK 23/15 Q1014 NOSIG

METARs EXPIRÉS :
  • 161820Z 35005KT CAVOK 24/15 Q1014 NOSIG
  • 161750Z 35005KT 310V010 CAVOK 25/15 Q1014 NOSIG
  • 161720Z 30005KT 260V330 9999 FEW045 26/14 Q1014 NOSIG
  • 161650Z 27006KT 230V300 9999 FEW045 27/13 Q1014 NOSIG
  • 161620Z 28006KT CAVOK 26/14 Q1014 NOSIG

TAF TAF EBLG
Valide du 16 à 18h jusqu'au 18 à 00h UTC


161700Z 1618/1724 27007KT 9999 FEW035
TEMPO 1619/1702 33010G20KT
TEMPO 1702/1708 VRB18G30KT 2500 TSRA SCT004 BKN006 BKN014CB
Pas de NOTAMs connus pour ce terrain.



MET'MAP, la Météo Aéronautique d'un coup d'oeil ! - Copyright ORBIFLY Décembre 2007 - Disclaimer

ORBIFLY MET'MAP TEAM :

Programmation & Développement : Alexandra Zaïnal
Conception & Développement : Baudouin d'Aumeries
Co-Programmation & Développement : Marc-Olivier Méhu
Soutien technique & logistique : Manuel Goepfert

Contact : metmap@orbifly.com




SOURCES & CREDITS :

   NOAA